Time;durP1;ratioP1;P1;durP2;ratioP2;P2;SDS_P1;SDS_P2;PMS_P1;PMS_P2;Temp;Humidity;BMP_temperature;BMP_pressure;BME280_temperature;BME280_humidity;BME280_pressure;Samples;Min_cycle;Max_cycle;Signal;HPM_P1;HPM_P2
2022/10/24 00:02:05;;;;;;;2.13;1.50;;;;;;;15.87;85.35;98472.13;5115523;27;41249;-82
2022/10/24 00:04:36;;;;;;;3.70;1.93;;;;;;;15.82;85.62;98469.88;5132926;27;43867;-81
2022/10/24 00:07:06;;;;;;;1.63;1.53;;;;;;;15.82;85.50;98473.56;5134124;27;42073;-82
2022/10/24 00:09:35;;;;;;;3.83;1.83;;;;;;;15.77;85.53;98482.81;5115679;27;38755;-82
2022/10/24 00:12:04;;;;;;;4.70;2.17;;;;;;;15.72;85.44;98485.03;5132690;27;42664;-83
2022/10/24 00:14:33;;;;;;;3.73;2.00;;;;;;;15.69;85.52;98490.66;5114376;27;45326;-82
2022/10/24 00:17:01;;;;;;;1.83;1.60;;;;;;;15.65;85.41;98489.25;5115509;27;41394;-82
2022/10/24 00:19:29;;;;;;;2.40;1.93;;;;;;;15.61;85.13;98476.28;5133593;27;40878;-82
2022/10/24 00:21:56;;;;;;;3.20;1.53;;;;;;;15.31;85.01;98438.00;5132716;27;41672;-82
2022/10/24 00:24:25;;;;;;;2.70;1.83;;;;;;;15.52;85.12;98488.59;5132600;27;43059;-82
2022/10/24 00:26:53;;;;;;;2.00;1.63;;;;;;;15.48;85.33;98502.34;5115551;27;41125;-82
2022/10/24 00:29:21;;;;;;;2.53;1.70;;;;;;;15.43;85.60;98502.78;5115675;27;40660;-82
2022/10/24 00:31:49;;;;;;;5.30;2.50;;;;;;;15.29;85.22;98490.63;5132767;27;41684;-82
2022/10/24 00:34:16;;;;;;;2.20;2.00;;;;;;;15.25;85.58;98491.03;5132215;27;41644;-82
2022/10/24 00:36:44;;;;;;;3.97;2.27;;;;;;;15.34;85.45;98515.06;5133913;27;42886;-82
2022/10/24 00:39:13;;;;;;;4.77;2.07;;;;;;;15.34;85.74;98515.06;5133741;27;39907;-82
2022/10/24 00:41:43;;;;;;;5.37;2.07;;;;;;;15.33;85.61;98510.72;5115408;27;40722;-82
2022/10/24 00:44:21;;;;;;;2.77;2.00;;;;;;;15.23;85.52;98496.50;5132238;27;42741;-82
2022/10/24 00:46:54;;;;;;;3.83;2.10;;;;;;;15.21;85.45;98490.44;5115143;27;42128;-82
2022/10/24 00:49:26;;;;;;;2.47;2.23;;;;;;;15.28;85.22;98491.63;5115318;27;38943;-82
2022/10/24 00:51:59;;;;;;;3.20;2.30;;;;;;;15.25;85.30;98475.88;5130317;27;41841;-83
2022/10/24 00:54:26;;;;;;;2.80;2.30;;;;;;;15.27;85.19;98484.59;5131086;27;44663;-82
2022/10/24 00:57:05;;;;;;;3.80;1.90;;;;;;;15.32;84.98;98495.72;5116330;27;41384;-82
2022/10/24 00:59:34;;;;;;;2.87;1.90;;;;;;;15.26;84.87;98488.22;5133564;27;40454;-82
2022/10/24 01:02:03;;;;;;;4.20;1.90;;;;;;;15.12;85.45;98477.91;5100120;27;42136;-82
2022/10/24 01:04:31;;;;;;;3.50;2.73;;;;;;;15.17;85.31;98483.72;5112345;27;42772;-82
2022/10/24 01:07:10;;;;;;;3.10;1.90;;;;;;;15.15;85.32;98485.66;5113225;27;41287;-82
2022/10/24 01:09:55;;;;;;;3.37;2.00;;;;;;;15.09;85.77;98476.34;5134526;27;39772;-82
2022/10/24 01:12:31;;;;;;;2.97;2.03;;;;;;;15.05;85.74;98479.44;5132752;27;41869;-82
2022/10/24 01:15:07;;;;;;;4.43;2.60;;;;;;;15.02;85.41;98477.03;5135763;27;42801;-82
2022/10/24 01:17:43;;;;;;;3.33;2.30;;;;;;;14.89;85.56;98455.06;5135434;27;41304;-82
2022/10/24 01:20:29;;;;;;;2.07;1.90;;;;;;;14.85;85.75;98464.28;5118393;27;39525;-82
2022/10/24 01:23:09;;;;;;;3.57;2.27;;;;;;;14.95;85.39;98484.72;5132410;27;41903;-82
2022/10/24 01:25:47;;;;;;;3.37;2.07;;;;;;;14.84;85.14;98475.94;5101707;27;43218;-82
2022/10/24 01:28:19;;;;;;;3.17;2.10;;;;;;;14.88;85.49;98478.22;5132554;27;42272;-82
2022/10/24 01:30:51;;;;;;;3.27;2.17;;;;;;;14.90;85.68;98489.59;5135422;27;39174;-83
2022/10/24 01:33:26;;;;;;;3.07;2.30;;;;;;;14.77;85.57;98474.78;5118523;27;43115;-82
2022/10/24 01:36:00;;;;;;;2.37;1.77;;;;;;;14.88;85.29;98493.38;5145240;27;41593;-82
2022/10/24 01:38:32;;;;;;;3.23;2.00;;;;;;;14.75;85.28;98466.91;5145826;27;42212;-82
2022/10/24 01:41:05;;;;;;;2.80;1.80;;;;;;;14.76;85.47;98478.44;5146863;27;39175;-82
2022/10/24 01:43:36;;;;;;;4.70;2.10;;;;;;;14.82;85.20;98493.91;5146939;27;40473;-82
2022/10/24 01:46:08;;;;;;;2.50;1.90;;;;;;;14.80;85.46;98494.03;5147429;27;42674;-81
2022/10/24 01:48:44;;;;;;;3.07;1.97;;;;;;;14.74;85.15;98497.22;5135561;27;42461;-81
2022/10/24 01:51:15;;;;;;;2.90;1.90;;;;;;;14.74;85.31;98490.06;5135107;27;40320;-82
2022/10/24 01:53:45;;;;;;;2.20;1.90;;;;;;;14.77;85.26;98486.28;5135439;27;40783;-82
2022/10/24 01:56:13;;;;;;;2.20;1.87;;;;;;;14.85;85.19;98485.63;5117988;27;43237;-82
2022/10/24 01:58:40;;;;;;;2.17;1.83;;;;;;;14.93;85.16;98481.34;5118058;27;42702;-82
2022/10/24 02:01:13;;;;;;;2.30;1.70;;;;;;;15.04;85.01;98488.41;5117644;27;40645;-82
2022/10/24 02:03:46;;;;;;;4.03;1.70;;;;;;;15.01;85.15;98489.53;5117685;27;43076;-82
2022/10/24 02:06:19;;;;;;;2.77;1.70;;;;;;;14.99;84.88;98485.28;5134878;27;42700;-82
2022/10/24 02:08:51;;;;;;;2.07;1.80;;;;;;;14.94;84.99;98471.53;5117446;27;43373;-82
2022/10/24 02:11:19;;;;;;;3.63;1.93;;;;;;;14.90;85.10;98467.44;5117722;27;39728;-82
2022/10/24 02:13:57;;;;;;;2.23;2.03;;;;;;;14.86;84.96;98469.50;5117127;27;40373;-82
2022/10/24 02:16:26;;;;;;;4.47;1.83;;;;;;;14.81;84.93;98474.41;5134765;27;44593;-82
2022/10/24 02:18:56;;;;;;;2.73;2.40;;;;;;;14.76;85.02;98473.09;5134863;27;41738;-82
2022/10/24 02:21:31;;;;;;;4.33;2.20;;;;;;;14.70;85.32;98467.31;5117610;27;39189;-82
2022/10/24 02:24:03;;;;;;;2.37;1.67;;;;;;;14.56;85.19;98432.16;5135034;27;40934;-82
2022/10/24 02:26:35;;;;;;;4.20;2.23;;;;;;;14.46;85.09;98424.13;5117443;27;44355;-82
2022/10/24 02:29:08;;;;;;;3.30;2.00;;;;;;;14.58;85.25;98441.72;5117737;27;43698;-82
2022/10/24 02:31:41;;;;;;;3.43;2.17;;;;;;;14.54;85.08;98445.63;5134940;27;39818;-82
2022/10/24 02:34:11;;;;;;;4.17;2.27;;;;;;;14.50;85.30;98444.19;5117140;27;42664;-82
2022/10/24 02:36:41;;;;;;;5.23;2.93;;;;;;;14.46;85.37;98444.59;5117120;27;41723;-82
2022/10/24 02:39:11;;;;;;;2.23;1.87;;;;;;;14.38;85.52;98437.19;5134339;27;42098;-82
2022/10/24 02:41:42;;;;;;;3.63;2.03;;;;;;;14.37;85.27;98440.84;5134555;27;39040;-82
2022/10/24 02:44:13;;;;;;;2.27;1.60;;;;;;;14.34;85.28;98435.78;5116793;27;44105;-82
2022/10/24 02:46:44;;;;;;;2.77;1.73;;;;;;;14.25;85.25;98434.72;5131121;27;43018;-82
2022/10/24 02:49:12;;;;;;;4.30;1.97;;;;;;;14.17;85.27;98439.00;5116643;27;40881;-81
2022/10/24 02:51:43;;;;;;;2.83;2.00;;;;;;;14.21;85.33;98456.44;5134293;27;39589;-82
2022/10/24 02:54:11;;;;;;;3.97;2.00;;;;;;;14.20;85.25;98454.75;5134185;27;42426;-82
2022/10/24 02:56:43;;;;;;;3.87;2.90;;;;;;;14.11;85.71;98439.50;5133780;27;42914;-81
2022/10/24 02:59:10;;;;;;;3.83;2.23;;;;;;;14.17;85.70;98449.66;5133727;27;41432;-81
2022/10/24 03:01:38;;;;;;;2.47;2.13;;;;;;;14.17;85.75;98452.31;5133900;27;38798;-82
2022/10/24 03:04:07;;;;;;;4.57;1.93;;;;;;;14.13;85.91;98442.91;5134794;27;41740;-82
2022/10/24 03:06:35;;;;;;;2.20;1.70;;;;;;;14.17;85.64;98455.00;5133803;27;43547;-82
2022/10/24 03:09:02;;;;;;;4.77;2.07;;;;;;;14.17;85.80;98449.66;5116752;27;42748;-82
2022/10/24 03:11:30;;;;;;;3.43;2.20;;;;;;;14.18;85.73;98452.19;5133750;27;40912;-82
2022/10/24 03:13:57;;;;;;;4.60;2.00;;;;;;;14.16;86.49;98442.66;5133288;27;41987;-82
2022/10/24 03:16:25;;;;;;;5.03;2.13;;;;;;;14.06;86.72;98439.06;5134466;27;42846;-82
2022/10/24 03:18:53;;;;;;;2.30;1.80;;;;;;;14.15;86.47;98446.28;5115783;27;43873;-82
2022/10/24 03:21:22;;;;;;;2.80;1.70;;;;;;;14.16;86.46;98458.63;5134373;27;40027;-82
2022/10/24 03:23:50;;;;;;;2.33;1.83;;;;;;;14.06;86.58;98452.38;5134655;27;41615;-81
2022/10/24 03:26:18;;;;;;;6.60;1.90;;;;;;;14.15;86.69;98472.91;5133415;27;41540;-82
2022/10/24 03:28:45;;;;;;;3.30;1.80;;;;;;;13.99;86.25;98444.88;5133460;27;42878;-82
2022/10/24 03:31:13;;;;;;;2.13;1.80;;;;;;;14.14;86.33;98455.25;5134592;27;40857;-82
2022/10/24 03:33:40;;;;;;;3.23;2.20;;;;;;;14.03;86.81;98438.34;5133481;27;42102;-82
2022/10/24 03:36:08;;;;;;;2.70;2.03;;;;;;;14.03;86.82;98432.19;5116239;27;43058;-82
2022/10/24 03:38:37;;;;;;;4.13;2.20;;;;;;;14.14;86.98;98440.09;5116044;27;42576;-82
2022/10/24 03:41:06;;;;;;;6.00;2.50;;;;;;;14.07;87.10;98432.78;5133320;27;39747;-82
2022/10/24 03:43:33;;;;;;;3.37;1.93;;;;;;;14.13;87.22;98438.41;5133167;27;43398;-82
2022/10/24 03:46:02;;;;;;;4.97;2.03;;;;;;;14.19;87.21;98447.72;5133169;27;42694;-82
2022/10/24 03:48:29;;;;;;;3.00;2.03;;;;;;;14.21;87.70;98445.78;5115907;27;43346;-81
2022/10/24 03:50:57;;;;;;;4.70;2.10;;;;;;;14.23;87.72;98439.31;5116146;27;38797;-82
2022/10/24 03:53:25;;;;;;;3.27;1.53;;;;;;;14.24;88.19;98429.53;5133292;27;42796;-82
2022/10/24 03:55:55;;;;;;;2.33;1.70;;;;;;;14.26;87.79;98433.75;5133439;27;43811;-81
2022/10/24 03:58:23;;;;;;;4.17;1.60;;;;;;;14.28;87.99;98431.81;5115949;27;42214;-82
2022/10/24 04:00:50;;;;;;;3.03;1.70;;;;;;;14.20;87.97;98438.75;5115749;27;40303;-82
2022/10/24 04:03:18;;;;;;;3.57;1.80;;;;;;;14.21;88.47;98443.13;5132843;27;42518;-82
2022/10/24 04:05:46;;;;;;;3.90;1.47;;;;;;;14.31;88.70;98463.53;5132815;27;42754;-82
2022/10/24 04:08:13;;;;;;;3.57;1.83;;;;;;;14.34;88.75;98476.56;5115908;27;41193;-82
2022/10/24 04:10:41;;;;;;;2.23;1.40;;;;;;;14.34;88.07;98473.91;5115661;27;38861;-82
2022/10/24 04:13:10;;;;;;;4.57;1.40;;;;;;;14.35;88.28;98467.59;5133255;27;40658;-82
2022/10/24 04:15:37;;;;;;;1.80;1.40;;;;;;;14.31;88.04;98458.19;5115486;27;43204;-83
2022/10/24 04:18:07;;;;;;;5.00;1.57;;;;;;;14.30;88.15;98453.00;5115598;27;41148;-82
2022/10/24 04:20:35;;;;;;;3.80;1.70;;;;;;;14.39;88.12;98470.84;5132747;27;39763;-82
2022/10/24 04:23:02;;;;;;;4.53;2.73;;;;;;;14.31;88.44;98457.34;5132816;27;41707;-83
2022/10/24 04:25:30;;;;;;;4.10;1.60;;;;;;;14.41;88.11;98468.94;5115038;27;42609;-82
2022/10/24 04:27:57;;;;;;;6.67;1.80;;;;;;;14.42;88.83;98469.78;5133754;27;42356;-82
2022/10/24 04:30:27;;;;;;;3.80;1.77;;;;;;;14.33;88.31;98456.25;5115827;27;41405;-82
2022/10/24 04:32:56;;;;;;;3.23;1.60;;;;;;;14.43;88.30;98477.66;5119172;27;41688;-82
2022/10/24 04:35:25;;;;;;;4.20;1.60;;;;;;;14.43;88.15;98472.34;5118885;27;41896;-82
2022/10/24 04:37:53;;;;;;;3.27;1.73;;;;;;;14.40;88.28;98459.25;5136227;27;42950;-82
2022/10/24 04:40:21;;;;;;;4.77;1.80;;;;;;;14.42;88.05;98454.66;5118927;27;38827;-82
2022/10/24 04:42:48;;;;;;;3.83;1.77;;;;;;;14.42;88.27;98449.31;5136144;27;40849;-82
2022/10/24 04:45:16;;;;;;;3.83;1.60;;;;;;;14.41;88.25;98442.31;5135999;27;42725;-82
2022/10/24 04:47:45;;;;;;;2.97;2.50;;;;;;;14.44;88.57;98441.22;5118838;27;41210;-83
2022/10/24 04:50:13;;;;;;;3.87;1.43;;;;;;;14.39;88.77;98438.88;5135811;27;38770;-82
2022/10/24 04:52:40;;;;;;;5.90;1.60;;;;;;;14.18;88.56;98390.09;5118822;27;41565;-83
2022/10/24 04:55:08;;;;;;;4.57;1.40;;;;;;;14.46;88.87;98432.13;5136103;27;41649;-83
2022/10/24 04:57:36;;;;;;;2.80;1.80;;;;;;;14.37;88.52;98409.72;5118799;27;42800;-82
2022/10/24 05:00:05;;;;;;;3.63;1.40;;;;;;;14.45;89.08;98417.09;5101832;27;38885;-83
2022/10/24 05:02:33;;;;;;;4.37;1.50;;;;;;;14.32;88.87;98403.94;5135881;27;42772;-82
2022/10/24 05:05:02;;;;;;;5.23;1.60;;;;;;;14.60;89.14;98463.72;5118275;27;42812;-83
2022/10/24 05:07:29;;;;;;;2.97;1.30;;;;;;;14.67;88.92;98464.06;5118589;27;41383;-83
2022/10/24 05:09:57;;;;;;;2.90;1.33;;;;;;;14.72;88.63;98445.84;5119000;27;41107;-82
2022/10/24 05:12:25;;;;;;;5.03;1.73;;;;;;;14.79;88.23;98446.19;5135795;27;41824;-83
2022/10/24 05:14:52;;;;;;;4.40;1.90;;;;;;;14.85;88.37;98435.81;5135091;27;42696;-83
2022/10/24 05:17:20;;;;;;;5.43;1.70;;;;;;;14.81;88.45;98420.25;5136836;27;42974;-83
2022/10/24 05:19:47;;;;;;;4.73;1.70;;;;;;;14.86;87.82;98423.34;5118500;27;39952;-82
2022/10/24 05:22:17;;;;;;;2.03;1.20;;;;;;;15.01;87.41;98446.84;5135831;27;42497;-82
2022/10/24 05:24:44;;;;;;;3.63;1.30;;;;;;;15.05;87.61;98458.94;5117757;27;44225;-82
2022/10/24 05:27:12;;;;;;;3.67;1.60;;;;;;;15.07;87.23;98472.16;5135563;27;43536;-82
2022/10/24 05:29:39;;;;;;;2.73;1.60;;;;;;;15.06;86.83;98489.13;5135065;27;40413;-82
2022/10/24 05:32:07;;;;;;;5.07;2.10;;;;;;;14.64;86.69;98419.03;5118162;27;40530;-85
2022/10/24 05:34:35;;;;;;;3.20;2.23;;;;;;;14.82;86.87;98467.25;5093500;28;44101;-90
2022/10/24 05:37:02;;;;;;;5.97;2.37;;;;;;;14.82;87.28;98472.59;5084568;28;43045;-86
2022/10/24 05:39:32;;;;;;;4.57;2.33;;;;;;;14.72;87.51;98461.84;5118460;27;39927;-88
2022/10/24 05:41:59;;;;;;;4.73;2.50;;;;;;;14.57;88.26;98447.19;5101371;27;40864;-87
2022/10/24 05:44:27;;;;;;;3.47;1.97;;;;;;;14.58;88.10;98481.69;5112381;27;41639;-85
2022/10/24 05:46:55;;;;;;;3.97;2.17;;;;;;;14.55;88.37;98473.97;5132565;27;41887;-90
2022/10/24 05:49:22;;;;;;;4.43;2.27;;;;;;;14.53;88.46;98465.25;5114911;27;40982;-86
2022/10/24 05:51:50;;;;;;;4.97;2.13;;;;;;;14.44;88.37;98466.03;5114311;27;42725;-88
2022/10/24 05:54:17;;;;;;;3.47;2.17;;;;;;;14.54;88.83;98469.59;5110314;27;41864;-82
2022/10/24 05:56:50;;;;;;;4.90;2.10;;;;;;;14.55;88.63;98465.97;5111977;27;42800;-89
2022/10/24 05:59:18;;;;;;;4.20;2.00;;;;;;;14.44;88.72;98436.72;5109278;27;38718;-89
2022/10/24 06:01:46;;;;;;;4.40;2.37;;;;;;;14.34;88.85;98414.47;5137016;27;42183;-89
2022/10/24 06:04:13;;;;;;;2.90;1.77;;;;;;;14.59;88.52;98466.53;5137905;27;42573;-85
2022/10/24 09:19:25;;;;;;;4.77;1.83;;;;;;;15.74;100.00;98560.50;5151165;27;20600;-85
2022/10/24 09:21:56;;;;;;;4.80;2.80;;;;;;;16.23;100.00;98568.63;5133047;27;38770;-84
2022/10/24 09:24:39;;;;;;;6.20;2.07;;;;;;;16.73;94.90;98578.25;5149555;27;42746;-85
2022/10/24 09:27:14;;;;;;;3.30;1.93;;;;;;;17.14;91.81;98587.81;5132171;27;42644;-84
2022/10/24 09:29:42;;;;;;;6.03;1.60;;;;;;;17.48;89.36;98587.28;5132266;27;42566;-84
2022/10/24 09:32:16;;;;;;;3.57;1.83;;;;;;;17.67;87.03;98573.03;5149379;27;39222;-86
2022/10/24 09:34:45;;;;;;;5.97;2.07;;;;;;;17.79;85.33;98574.53;5149690;27;41540;-85
2022/10/24 09:37:29;;;;;;;6.90;1.70;;;;;;;18.04;83.38;98573.84;5132532;27;41504;-86
2022/10/24 09:40:17;;;;;;;2.30;1.70;;;;;;;18.28;82.70;98595.56;5132458;27;41217;-87
2022/10/24 09:42:54;;;;;;;4.50;1.80;;;;;;;18.41;82.14;98595.19;5133243;27;40773;-86
2022/10/24 09:45:40;;;;;;;4.00;2.27;;;;;;;18.27;81.04;98576.94;5131897;27;40704;-88
2022/10/24 09:48:20;;;;;;;3.67;1.90;;;;;;;18.39;80.27;98580.25;5132976;27;42547;-86
2022/10/24 09:50:53;;;;;;;4.37;1.77;;;;;;;18.41;79.69;98588.97;5133374;27;41928;-90
2022/10/24 09:53:24;;;;;;;5.13;1.70;;;;;;;18.27;80.15;98569.75;5134291;27;39537;-89
2022/10/24 09:55:55;;;;;;;4.90;1.57;;;;;;;18.43;79.88;98600.38;5131780;27;41138;-86
2022/10/24 09:58:31;;;;;;;3.53;2.20;;;;;;;18.32;79.15;98596.06;5131433;27;45116;-87
2022/10/24 10:01:02;;;;;;;6.83;2.27;;;;;;;18.40;78.97;98608.75;5114709;27;42828;-87
2022/10/24 10:03:30;;;;;;;3.73;1.90;;;;;;;18.22;78.99;98585.41;5132405;27;38588;-89
2022/10/24 10:06:03;;;;;;;3.97;2.10;;;;;;;18.28;79.17;98589.34;5131874;27;42440;-85
2022/10/24 10:08:33;;;;;;;5.17;2.10;;;;;;;18.47;78.71;98609.81;5148665;27;43919;-83
2022/10/24 10:11:06;;;;;;;4.70;1.77;;;;;;;18.47;79.07;98599.09;5131298;27;42746;-83
2022/10/24 10:13:44;;;;;;;5.20;2.00;;;;;;;18.53;78.67;98606.53;5150843;27;39880;-84
2022/10/24 10:16:22;;;;;;;3.70;1.83;;;;;;;18.62;78.57;98602.97;5133508;27;40831;-88
2022/10/24 10:18:50;;;;;;;3.40;2.00;;;;;;;18.53;77.98;98587.75;5132923;27;41699;-83
2022/10/24 10:21:24;;;;;;;5.67;1.90;;;;;;;18.86;76.92;98632.72;5132727;27;41152;-87
2022/10/24 10:23:55;;;;;;;3.93;1.63;;;;;;;18.91;76.87;98614.31;5139683;27;40313;-93
2022/10/24 10:26:26;;;;;;;7.20;2.23;;;;;;;19.10;76.25;98624.03;5134295;27;40663;-86
2022/10/24 10:28:57;;;;;;;4.83;2.10;;;;;;;19.15;76.27;98610.16;5127981;27;42404;-85
2022/10/24 10:31:28;;;;;;;6.27;1.83;;;;;;;19.33;76.00;98613.63;5117115;27;41991;-85
2022/10/24 10:34:20;;;;;;;3.27;2.03;;;;;;;19.49;75.56;98612.94;5117769;27;38597;-85
2022/10/24 10:37:14;;;;;;;4.80;2.20;;;;;;;19.63;75.23;98607.81;5117709;27;42045;-86
2022/10/24 10:40:15;;;;;;;9.93;2.63;;;;;;;19.83;74.74;98619.19;5114686;27;42844;-85
2022/10/24 10:42:51;;;;;;;6.40;1.90;;;;;;;19.83;74.07;98615.66;5116259;27;42929;-85
2022/10/24 10:45:32;;;;;;;4.60;2.10;;;;;;;19.85;73.64;98603.75;5110941;27;40235;-85
2022/10/24 10:48:14;;;;;;;5.87;2.17;;;;;;;19.95;73.47;98608.97;5112450;27;43456;-84
2022/10/24 10:50:49;;;;;;;2.70;1.57;;;;;;;19.94;73.57;98604.59;5111631;27;42812;-86
2022/10/24 10:53:34;;;;;;;6.90;2.20;;;;;;;20.00;73.24;98617.41;5132275;27;42914;-85
2022/10/24 10:56:18;;;;;;;8.50;3.37;;;;;;;19.94;72.78;98618.03;5106145;27;40006;-85
2022/10/24 10:58:55;;;;;;;4.90;2.17;;;;;;;20.05;72.87;98620.44;5104951;28;40619;-84
2022/10/24 11:01:31;;;;;;;4.67;1.83;;;;;;;19.99;73.00;98605.81;5113784;27;41830;-84
2022/10/24 11:04:12;;;;;;;6.03;2.23;;;;;;;20.08;72.30;98625.50;5115613;27;43195;-84
2022/10/24 11:06:46;;;;;;;4.67;2.30;;;;;;;20.03;72.71;98607.16;5110921;27;41069;-84
2022/10/24 11:09:27;;;;;;;5.17;2.00;;;;;;;20.07;72.55;98623.81;5116621;27;42052;-85
2022/10/24 11:12:02;;;;;;;6.07;2.07;;;;;;;20.03;71.97;98615.22;5111317;27;44207;-84
2022/10/24 11:14:33;;;;;;;3.90;1.60;;;;;;;19.99;72.59;98610.34;5114843;27;42688;-85
2022/10/24 11:17:10;;;;;;;4.50;2.47;;;;;;;19.87;71.91;98606.25;5112366;27;40016;-86
2022/10/24 11:19:44;;;;;;;9.37;1.97;;;;;;;19.93;72.14;98617.19;5113550;27;42267;-84
2022/10/24 11:22:19;;;;;;;4.83;1.90;;;;;;;19.75;72.70;98586.91;5114092;27;41635;-85
2022/10/24 11:24:58;;;;;;;4.07;1.60;;;;;;;19.96;72.47;98616.03;5111848;27;41143;-84
2022/10/24 11:27:31;;;;;;;4.53;1.73;;;;;;;19.85;72.49;98597.53;5108028;27;41457;-84
2022/10/24 11:30:05;;;;;;;5.03;1.80;;;;;;;19.92;71.89;98614.66;5116184;27;42228;-87
2022/10/24 11:32:36;;;;;;;4.30;1.87;;;;;;;19.89;72.03;98612.34;5116638;27;42483;-88
2022/10/24 11:35:16;;;;;;;5.70;2.00;;;;;;;19.89;72.34;98598.91;5116241;27;42329;-87
2022/10/24 11:37:51;;;;;;;4.77;1.80;;;;;;;19.91;72.15;98607.59;5116442;27;39145;-87
2022/10/24 11:40:22;;;;;;;3.27;2.00;;;;;;;19.82;71.93;98601.38;5115365;27;40674;-84
2022/10/24 11:42:56;;;;;;;5.03;1.70;;;;;;;19.90;71.86;98611.34;5115963;27;42970;-87
2022/10/24 11:45:29;;;;;;;4.13;1.80;;;;;;;19.91;71.57;98623.72;5116112;27;41335;-81
2022/10/24 11:48:09;;;;;;;4.50;1.70;;;;;;;19.89;71.72;98604.28;5132682;27;40017;-84
2022/10/24 11:50:44;;;;;;;3.03;1.67;;;;;;;20.01;71.56;98616.41;5132725;27;40790;-84
2022/10/24 11:53:21;;;;;;;5.00;1.60;;;;;;;20.05;71.69;98621.28;5132954;27;42985;-82
2022/10/24 11:55:56;;;;;;;4.67;1.70;;;;;;;20.06;71.44;98622.13;5130742;27;43148;-82
2022/10/24 11:58:28;;;;;;;3.47;1.83;;;;;;;19.99;71.68;98610.34;5133617;27;40062;-87
2022/10/24 12:01:16;;;;;;;5.60;1.80;;;;;;;20.09;71.52;98621.81;5115851;27;42435;-85
2022/10/24 12:04:07;;;;;;;6.43;1.73;;;;;;;20.05;71.55;98620.44;5115974;27;42946;-86
2022/10/24 12:06:53;;;;;;;2.03;1.37;;;;;;;20.09;71.20;98628.03;5137490;27;41682;-81
2022/10/24 12:09:36;;;;;;;4.73;2.73;;;;;;;20.05;71.23;98625.81;5133770;27;41151;-86
2022/10/24 12:12:22;;;;;;;4.90;2.00;;;;;;;19.93;71.04;98616.38;5130849;27;41918;-85
2022/10/24 12:15:07;;;;;;;4.27;2.17;;;;;;;19.96;70.89;98626.81;5117163;27;42235;-86
2022/10/24 12:17:47;;;;;;;4.60;1.70;;;;;;;19.94;70.87;98618.88;5130831;27;41933;-89
2022/10/24 12:20:18;;;;;;;2.70;1.67;;;;;;;19.86;70.57;98599.22;5130879;27;39996;-87
2022/10/24 12:22:49;;;;;;;4.23;1.70;;;;;;;19.97;70.72;98601.59;5115568;27;40794;-85
2022/10/24 12:25:22;;;;;;;5.73;1.80;;;;;;;19.98;70.31;98565.66;5132764;27;43697;-84
2022/10/24 12:27:56;;;;;;;3.20;2.00;;;;;;;20.09;70.38;98565.38;5116733;27;40823;-84
2022/10/24 12:30:26;;;;;;;3.10;1.57;;;;;;;20.22;69.75;98579.19;5132935;27;40193;-87
2022/10/24 12:32:57;;;;;;;6.83;1.60;;;;;;;20.27;69.19;98574.16;5132760;27;41084;-86
2022/10/24 12:35:36;;;;;;;5.97;1.60;;;;;;;20.32;69.37;98582.56;5129718;27;42711;-86
2022/10/24 12:38:16;;;;;;;4.73;1.83;;;;;;;20.27;68.83;98576.03;5115967;27;42420;-83
2022/10/24 12:40:54;;;;;;;7.43;2.47;;;;;;;20.33;68.95;98569.97;5132520;27;41713;-87
2022/10/24 12:43:33;;;;;;;3.37;1.70;;;;;;;20.48;68.74;98567.50;5131899;27;42801;-82
2022/10/24 12:46:22;;;;;;;3.90;1.57;;;;;;;20.62;68.06;98580.31;5129228;27;42778;-83
2022/10/24 12:49:18;;;;;;;3.60;1.60;;;;;;;20.71;68.06;98576.63;5115448;27;41870;-86
2022/10/24 12:51:45;;;;;;;3.03;1.63;;;;;;;20.69;67.99;98566.03;5115591;27;38920;-88
2022/10/24 12:54:20;;;;;;;6.10;1.80;;;;;;;20.63;67.91;98547.88;5115128;27;40579;-94
2022/10/24 12:57:20;;;;;;;5.27;1.93;;;;;;;20.73;67.94;98562.00;5116276;27;44177;-89
2022/10/24 12:59:52;;;;;;;2.67;1.67;;;;;;;20.50;67.42;98538.59;5115112;27;41652;-88
2022/10/24 13:02:50;;;;;;;3.03;1.97;;;;;;;20.62;67.68;98556.09;5115794;27;39016;-91
2022/10/24 13:05:59;;;;;;;4.37;1.90;;;;;;;20.53;67.71;98559.78;5114763;27;42437;-93
2022/10/24 13:08:49;;;;;;;4.87;2.23;;;;;;;20.49;67.76;98553.91;5132799;27;42786;-88
2022/10/24 13:11:34;;;;;;;3.83;1.63;;;;;;;20.47;68.32;98555.06;5114843;27;41162;-90
2022/10/24 13:14:33;;;;;;;5.07;1.63;;;;;;;20.46;68.19;98542.63;5115242;27;38559;-83
2022/10/24 13:17:09;;;;;;;3.30;1.60;;;;;;;20.37;68.12;98539.09;5131924;27;42124;-86
2022/10/24 13:19:37;;;;;;;5.00;1.70;;;;;;;20.42;68.19;98532.19;5097677;27;41668;-86
2022/10/24 13:22:06;;;;;;;3.40;1.67;;;;;;;20.54;67.86;98540.78;5115011;27;42382;-79
2022/10/24 13:24:35;;;;;;;6.83;1.80;;;;;;;20.46;67.66;98529.16;5132753;27;39705;-83
2022/10/24 13:27:24;;;;;;;4.03;1.93;;;;;;;20.66;67.47;98543.97;5115496;27;42035;-87
2022/10/24 13:30:04;;;;;;;5.50;1.83;;;;;;;20.60;67.44;98520.44;5115397;27;43202;-87
2022/10/24 13:32:35;;;;;;;6.43;2.07;;;;;;;20.69;66.83;98522.13;5115280;27;41277;-87
2022/10/24 13:35:06;;;;;;;3.20;1.90;;;;;;;20.86;66.67;98533.75;5114789;27;39184;-86
2022/10/24 13:37:40;;;;;;;4.00;1.50;;;;;;;21.11;65.55;98536.25;5132242;27;41628;-84
2022/10/24 13:40:14;;;;;;;3.73;1.40;;;;;;;21.24;65.08;98537.59;5131210;27;43447;-85
2022/10/24 13:42:49;;;;;;;6.77;2.17;;;;;;;21.51;64.98;98534.53;5129096;27;42184;-85
2022/10/24 13:45:24;;;;;;;2.67;1.50;;;;;;;22.13;64.14;98553.50;5114644;27;38943;-83
2022/10/24 13:47:59;;;;;;;2.73;1.80;;;;;;;22.64;62.38;98548.44;5115061;27;41062;-89
2022/10/24 13:50:32;;;;;;;4.97;1.60;;;;;;;23.45;59.82;98574.81;5131153;27;43676;-89
2022/10/24 13:53:03;;;;;;;3.20;1.67;;;;;;;23.76;58.32;98561.97;5115370;27;41330;-87
2022/10/24 13:55:36;;;;;;;2.17;1.40;;;;;;;23.92;57.97;98572.59;5114082;27;40655;-84
2022/10/24 13:58:11;;;;;;;3.93;2.80;;;;;;;23.79;56.56;98564.31;5114811;27;40601;-87
2022/10/24 14:00:41;;;;;;;7.63;2.20;;;;;;;24.07;55.68;98590.69;5113972;27;41929;-83
2022/10/24 14:03:16;;;;;;;7.10;2.73;;;;;;;24.06;55.71;98583.59;5114510;27;42651;-82
2022/10/24 14:05:47;;;;;;;7.90;2.13;;;;;;;24.22;55.93;98559.06;5133978;27;38605;-86
2022/10/24 14:08:24;;;;;;;2.67;1.63;;;;;;;24.27;55.03;98581.81;5135329;27;42007;-86
2022/10/24 14:10:54;;;;;;;4.17;1.87;;;;;;;23.72;55.37;98549.88;5134389;27;42107;-89
2022/10/24 14:13:25;;;;;;;6.23;1.50;;;;;;;23.47;56.03;98575.47;5118145;27;42364;-84
2022/10/24 14:15:56;;;;;;;5.13;2.00;;;;;;;23.16;57.62;98571.00;5134304;27;39974;-85
2022/10/24 14:18:26;;;;;;;2.30;1.50;;;;;;;22.77;58.07;98568.47;5133652;27;41797;-83
2022/10/24 14:20:56;;;;;;;6.03;2.00;;;;;;;22.43;58.58;98568.84;5117198;27;41821;-89
2022/10/24 14:23:26;;;;;;;6.40;2.30;;;;;;;21.90;59.85;98533.69;5118600;27;41117;-85
2022/10/24 14:25:57;;;;;;;4.13;1.80;;;;;;;21.79;60.90;98549.22;5134671;27;40371;-85
2022/10/24 14:28:27;;;;;;;3.70;1.57;;;;;;;21.50;61.53;98528.28;5131901;27;42020;-84
2022/10/24 14:30:58;;;;;;;4.27;1.80;;;;;;;21.53;62.32;98548.63;5134429;27;43664;-86
2022/10/24 14:33:29;;;;;;;4.60;2.20;;;;;;;21.34;62.76;98531.00;5118142;27;41343;-87
2022/10/24 14:35:59;;;;;;;3.50;1.97;;;;;;;21.31;63.03;98550.22;5134335;27;40136;-83
2022/10/24 14:38:28;;;;;;;4.17;1.90;;;;;;;21.20;63.50;98557.81;5118107;27;42266;-83
2022/10/24 14:40:57;;;;;;;5.40;2.20;;;;;;;21.15;63.92;98550.19;5117748;27;41576;-90
2022/10/24 14:43:28;;;;;;;4.73;1.80;;;;;;;21.08;63.96;98560.81;5134659;27;42235;-79
2022/10/24 14:46:07;;;;;;;8.47;2.30;;;;;;;20.97;64.38;98553.09;5134923;27;40864;-84
2022/10/24 14:48:36;;;;;;;3.30;1.60;;;;;;;20.83;64.98;98551.06;5117167;27;40333;-83
2022/10/24 14:51:08;;;;;;;7.37;1.73;;;;;;;20.74;65.46;98547.53;5135299;27;42787;-84
2022/10/24 14:53:38;;;;;;;3.50;1.90;;;;;;;20.69;65.70;98554.41;5118029;27;42157;-88
2022/10/24 14:56:20;;;;;;;4.43;1.80;;;;;;;20.57;65.70;98545.00;5116673;27;38845;-83
2022/10/24 14:58:51;;;;;;;7.63;1.90;;;;;;;20.67;65.89;98556.44;5134998;27;40662;-83
2022/10/24 15:01:21;;;;;;;4.97;2.17;;;;;;;20.72;66.36;98559.47;5093534;28;44188;-87
2022/10/24 15:03:55;;;;;;;6.40;1.90;;;;;;;20.75;66.07;98551.91;5099974;28;41022;-88
2022/10/24 15:06:25;;;;;;;4.97;1.80;;;;;;;20.73;66.06;98558.47;5112088;27;39085;-89
2022/10/24 15:09:06;;;;;;;4.53;1.73;;;;;;;20.59;66.29;98559.97;5112663;27;42190;-88
2022/10/24 15:11:38;;;;;;;5.13;1.90;;;;;;;20.52;66.30;98564.34;5116340;27;41680;-90
2022/10/24 15:14:31;;;;;;;4.30;1.90;;;;;;;20.44;66.70;98557.06;5116899;27;42597;-86